createdAt,value
2018-09-13T00:01:34.027Z,2.10
2018-09-13T00:04:01.804Z,2.60
2018-09-13T00:06:29.508Z,2.17
2018-09-13T00:08:56.960Z,3.10
2018-09-13T00:11:25.164Z,2.37
2018-09-13T00:13:52.652Z,2.07
2018-09-13T00:16:20.319Z,2.00
2018-09-13T00:18:47.915Z,2.10
2018-09-13T00:21:15.949Z,2.30
2018-09-13T00:23:43.489Z,2.20
2018-09-13T00:26:10.962Z,2.00
2018-09-13T00:28:38.427Z,2.27
2018-09-13T00:31:06.032Z,2.97
2018-09-13T00:33:33.651Z,2.30
2018-09-13T00:36:01.239Z,3.17
2018-09-13T00:38:28.719Z,2.20
2018-09-13T00:40:56.903Z,3.43
2018-09-13T00:43:24.388Z,2.07
2018-09-13T00:45:52.127Z,2.30
2018-09-13T00:48:19.773Z,1.77
2018-09-13T00:50:47.417Z,1.97
2018-09-13T00:53:15.037Z,2.07
2018-09-13T00:55:42.590Z,2.27
2018-09-13T00:58:10.255Z,2.30
2018-09-13T01:00:37.800Z,2.10
2018-09-13T01:03:07.195Z,1.63
2018-09-13T01:05:34.955Z,1.90
2018-09-13T01:08:02.509Z,2.10
2018-09-13T01:10:30.146Z,2.20
2018-09-13T01:12:57.947Z,2.43
2018-09-13T01:15:25.812Z,2.10
2018-09-13T01:17:53.643Z,2.47
2018-09-13T01:20:21.145Z,2.20
2018-09-13T01:22:48.656Z,2.27
2018-09-13T01:25:16.385Z,2.00
2018-09-13T01:30:28.176Z,2.63
2018-09-13T01:32:56.700Z,2.30
2018-09-13T01:35:24.612Z,2.30
2018-09-13T01:37:52.213Z,2.20
2018-09-13T01:40:19.881Z,2.30
2018-09-13T01:42:47.571Z,2.47
2018-09-13T01:45:15.480Z,1.83
2018-09-13T01:47:43.207Z,2.50
2018-09-13T01:50:11.750Z,2.43
2018-09-13T01:52:39.510Z,2.13
2018-09-13T01:55:07.260Z,2.63
2018-09-13T01:57:34.955Z,2.30
2018-09-13T02:00:03.051Z,2.93
2018-09-13T02:02:30.904Z,2.40
2018-09-13T02:04:58.493Z,2.37
2018-09-13T02:07:26.085Z,2.63
2018-09-13T02:09:54.119Z,3.00
2018-09-13T02:12:21.867Z,2.40
2018-09-13T02:17:58.870Z,2.90
2018-09-13T02:20:26.779Z,2.57
2018-09-13T02:25:25.658Z,2.67
2018-09-13T02:27:54.163Z,1.90
2018-09-13T02:30:21.941Z,2.70
2018-09-13T02:32:49.700Z,2.47
2018-09-13T02:35:17.571Z,2.87
2018-09-13T02:40:50.361Z,2.60
2018-09-13T02:43:18.411Z,2.63
2018-09-13T02:45:46.147Z,2.40
2018-09-13T02:48:20.731Z,2.47
2018-09-13T02:51:17.331Z,2.30
2018-09-13T02:53:45.110Z,2.50
2018-09-13T02:56:12.835Z,2.47
2018-09-13T02:58:40.466Z,2.40
2018-09-13T03:01:08.141Z,2.37
2018-09-13T03:03:35.956Z,2.60
2018-09-13T03:06:03.972Z,2.57
2018-09-13T03:08:31.990Z,2.73
2018-09-13T03:10:59.699Z,2.17
2018-09-13T03:13:27.258Z,2.50
2018-09-13T03:15:55.152Z,2.63
2018-09-13T03:18:22.722Z,2.50
2018-09-13T03:20:50.451Z,2.43
2018-09-13T03:23:29.540Z,2.30
2018-09-13T03:25:57.241Z,2.40
2018-09-13T03:28:25.359Z,2.67
2018-09-13T03:30:52.925Z,2.47
2018-09-13T03:33:20.590Z,2.87
2018-09-13T03:35:48.112Z,2.63
2018-09-13T03:38:22.039Z,2.53
2018-09-13T03:40:49.730Z,2.53
2018-09-13T03:43:17.503Z,2.23
2018-09-13T03:45:45.432Z,2.20
2018-09-13T03:48:13.116Z,3.07
2018-09-13T03:50:40.936Z,2.20
2018-09-13T03:53:08.809Z,2.10
2018-09-13T03:55:36.654Z,2.00
2018-09-13T03:58:04.529Z,2.43
2018-09-13T04:00:32.215Z,2.27
2018-09-13T04:02:59.914Z,2.50
2018-09-13T04:05:28.322Z,2.63
2018-09-13T04:10:21.045Z,2.67
2018-09-13T04:12:48.993Z,2.23
2018-09-13T04:15:17.137Z,2.40
2018-09-13T04:17:44.819Z,2.10
2018-09-13T04:20:12.531Z,2.40
2018-09-13T04:22:40.492Z,2.33
2018-09-13T04:25:08.202Z,2.13
2018-09-13T04:27:35.871Z,3.77
2018-09-13T04:30:03.603Z,2.57
2018-09-13T04:32:32.758Z,2.27
2018-09-13T04:35:00.537Z,2.13
2018-09-13T04:37:39.530Z,2.57
2018-09-13T04:40:07.229Z,2.10
2018-09-13T04:42:45.503Z,3.20
2018-09-13T04:45:13.405Z,2.60
2018-09-13T04:47:41.404Z,3.30
2018-09-13T04:50:09.249Z,2.63
2018-09-13T04:52:37.009Z,2.60
2018-09-13T04:55:04.993Z,2.47
2018-09-13T04:57:32.984Z,2.30
2018-09-13T05:00:00.558Z,2.10
2018-09-13T05:02:30.394Z,2.77
2018-09-13T05:04:58.017Z,2.37
2018-09-13T05:07:33.127Z,2.83
2018-09-13T05:10:01.950Z,2.40
2018-09-13T05:12:29.740Z,2.63
2018-09-13T05:14:57.432Z,2.33
2018-09-13T05:17:25.254Z,2.33
2018-09-13T05:19:53.214Z,2.47
2018-09-13T05:22:21.071Z,2.77
2018-09-13T05:24:48.792Z,3.27
2018-09-13T05:27:16.485Z,3.07
2018-09-13T05:29:44.270Z,2.40
2018-09-13T05:32:11.740Z,3.13
2018-09-13T05:34:39.550Z,4.13
2018-09-13T05:37:07.302Z,2.70
2018-09-13T05:39:35.168Z,3.10
2018-09-13T05:42:02.747Z,2.90
2018-09-13T05:44:30.493Z,3.00
2018-09-13T05:46:58.308Z,3.13
2018-09-13T05:49:26.061Z,2.23
2018-09-13T05:51:53.578Z,2.67
2018-09-13T05:54:20.944Z,2.30
2018-09-13T05:56:48.302Z,2.90
2018-09-13T05:59:15.655Z,3.07
2018-09-13T06:01:43.052Z,2.00
2018-09-13T06:04:10.436Z,2.53
2018-09-13T06:06:37.793Z,2.63
2018-09-13T06:09:06.965Z,2.70
2018-09-13T06:11:34.553Z,3.43
2018-09-13T06:14:02.120Z,3.30
2018-09-13T06:16:29.496Z,3.57
2018-09-13T06:18:56.839Z,3.10
2018-09-13T06:21:24.188Z,3.37
2018-09-13T06:23:51.550Z,3.60
2018-09-13T06:26:18.933Z,3.20
2018-09-13T06:28:46.848Z,3.10
2018-09-13T06:31:14.187Z,3.50
2018-09-13T06:33:41.596Z,2.87
2018-09-13T06:36:08.927Z,3.23
2018-09-13T06:38:36.260Z,3.00
2018-09-13T06:41:03.593Z,2.83
2018-09-13T06:43:30.956Z,2.60
2018-09-13T06:45:58.315Z,3.00
2018-09-13T06:48:25.688Z,2.37
2018-09-13T06:50:53.051Z,2.33
2018-09-13T06:53:20.423Z,2.20
2018-09-13T06:55:47.772Z,2.40
2018-09-13T06:58:15.120Z,2.80
2018-09-13T07:00:42.511Z,2.03
2018-09-13T07:03:09.896Z,2.20
2018-09-13T07:05:37.212Z,2.00
2018-09-13T07:08:04.719Z,2.60
2018-09-13T07:10:32.078Z,1.97
2018-09-13T07:12:59.491Z,1.80
2018-09-13T07:15:26.864Z,2.50
2018-09-13T07:17:54.189Z,2.13
2018-09-13T07:20:21.531Z,2.60
2018-09-13T07:22:48.908Z,1.90
2018-09-13T07:25:16.258Z,2.30
2018-09-13T07:27:43.651Z,2.30
2018-09-13T07:30:11.005Z,2.03
2018-09-13T07:32:38.408Z,1.77
2018-09-13T07:35:05.758Z,2.50
2018-09-13T07:37:33.107Z,1.83
2018-09-13T07:40:00.457Z,2.23
2018-09-13T07:42:28.178Z,2.07
2018-09-13T07:44:55.679Z,2.33
2018-09-13T07:47:23.142Z,1.87
2018-09-13T07:49:50.545Z,2.00
2018-09-13T07:52:18.006Z,2.17
2018-09-13T07:54:45.488Z,2.00
2018-09-13T07:57:12.905Z,2.10
2018-09-13T07:59:40.243Z,2.30
2018-09-13T08:02:07.629Z,2.20
2018-09-13T08:04:35.005Z,2.00
2018-09-13T08:07:02.331Z,1.47
2018-09-13T08:09:29.773Z,1.60
2018-09-13T08:11:57.203Z,2.17
2018-09-13T08:14:24.617Z,2.07
2018-09-13T08:16:52.303Z,1.47
2018-09-13T08:19:19.627Z,2.07
2018-09-13T08:21:47.086Z,1.93
2018-09-13T08:24:14.342Z,2.87
2018-09-13T08:26:41.728Z,1.97
2018-09-13T08:29:09.157Z,2.30
2018-09-13T08:31:36.522Z,2.00
2018-09-13T08:34:03.887Z,1.93
2018-09-13T08:36:31.236Z,2.60
2018-09-13T08:38:58.579Z,2.60
2018-09-13T08:41:25.915Z,2.30
2018-09-13T08:43:53.227Z,1.97
2018-09-13T08:46:20.904Z,2.57
2018-09-13T08:48:49.143Z,2.60
2018-09-13T08:51:16.565Z,2.60
2018-09-13T08:53:44.119Z,2.40
2018-09-13T08:56:11.465Z,2.37
2018-09-13T08:58:38.920Z,2.10
2018-09-13T09:01:06.276Z,2.10
2018-09-13T09:03:33.675Z,1.40
2018-09-13T09:06:01.124Z,1.33
2018-09-13T09:08:28.428Z,1.70
2018-09-13T09:10:55.826Z,1.90
2018-09-13T09:13:23.210Z,2.33
2018-09-13T09:15:50.553Z,1.80
2018-09-13T09:18:17.921Z,2.17
2018-09-13T09:20:45.361Z,1.73
2018-09-13T09:23:12.680Z,2.07
2018-09-13T09:25:40.114Z,1.97
2018-09-13T09:28:07.471Z,1.93
2018-09-13T09:30:34.977Z,1.57
2018-09-13T09:33:02.331Z,2.13
2018-09-13T09:35:29.887Z,2.37
2018-09-13T09:37:57.231Z,2.53
2018-09-13T09:40:24.596Z,1.87
2018-09-13T09:42:51.957Z,2.07
2018-09-13T09:45:19.297Z,1.83
2018-09-13T09:47:46.688Z,1.93
2018-09-13T09:50:14.059Z,1.80
2018-09-13T09:52:41.419Z,1.53
2018-09-13T09:55:08.799Z,2.10
2018-09-13T09:57:36.141Z,2.00
2018-09-13T10:00:03.658Z,1.70
2018-09-13T10:02:31.011Z,1.73
2018-09-13T10:04:58.355Z,1.80
2018-09-13T10:07:25.728Z,1.87
2018-09-13T10:09:53.144Z,2.20
2018-09-13T10:12:20.586Z,2.13
2018-09-13T10:14:53.564Z,1.60
2018-09-13T10:17:26.499Z,2.00
2018-09-13T10:19:59.476Z,2.17
2018-09-13T10:22:32.419Z,1.80
2018-09-13T10:25:05.501Z,1.90
2018-09-13T10:27:38.480Z,2.13
2018-09-13T10:30:11.882Z,2.07
2018-09-13T10:32:44.905Z,1.90
2018-09-13T10:35:17.907Z,2.43
2018-09-13T10:37:50.845Z,1.60
2018-09-13T10:40:23.984Z,1.57
2018-09-13T10:42:57.004Z,1.70
2018-09-13T10:46:29.878Z,1.90
2018-09-13T10:49:03.083Z,1.60
2018-09-13T10:54:18.083Z,1.73
2018-09-13T10:56:45.408Z,1.70
2018-09-13T10:59:12.841Z,1.83
2018-09-13T11:01:40.345Z,1.70
2018-09-13T11:04:07.721Z,2.23
2018-09-13T11:06:35.092Z,2.33
2018-09-13T11:09:03.712Z,1.60
2018-09-13T11:11:31.098Z,1.67
2018-09-13T11:14:03.010Z,1.73
2018-09-13T11:16:30.505Z,1.60
2018-09-13T11:18:58.167Z,1.40
2018-09-13T11:21:25.604Z,1.70
2018-09-13T11:23:52.944Z,1.90
2018-09-13T11:26:20.323Z,1.40
2018-09-13T11:28:47.667Z,1.70
2018-09-13T11:31:15.066Z,2.00
2018-09-13T11:33:42.408Z,1.70
2018-09-13T11:36:09.741Z,2.33
2018-09-13T11:38:37.184Z,1.50
2018-09-13T11:41:04.920Z,1.30
2018-09-13T11:43:32.102Z,1.63
2018-09-13T11:45:59.440Z,1.80
2018-09-13T11:48:26.764Z,1.83
2018-09-13T11:50:54.102Z,1.63
2018-09-13T11:53:21.436Z,1.60
2018-09-13T11:55:48.810Z,1.97
2018-09-13T11:58:16.384Z,1.70
2018-09-13T12:00:43.878Z,2.03
2018-09-13T12:03:12.275Z,1.50
2018-09-13T12:05:39.625Z,2.00
2018-09-13T12:08:07.172Z,1.90
2018-09-13T12:10:34.557Z,1.50
2018-09-13T12:13:01.954Z,1.50
2018-09-13T12:15:30.112Z,2.00
2018-09-13T12:17:57.930Z,1.57
2018-09-13T12:20:25.259Z,1.80
2018-09-13T12:22:52.657Z,1.53
2018-09-13T12:25:20.017Z,1.70
2018-09-13T12:27:47.461Z,1.47
2018-09-13T12:30:14.818Z,1.93
2018-09-13T12:32:42.221Z,1.73
2018-09-13T12:35:09.570Z,1.60
2018-09-13T12:37:36.949Z,1.70
2018-09-13T12:40:05.468Z,1.83
2018-09-13T12:42:32.784Z,1.67
2018-09-13T12:45:00.136Z,2.23
2018-09-13T12:47:27.533Z,2.17
2018-09-13T12:49:54.886Z,1.77
2018-09-13T12:52:22.310Z,1.30
2018-09-13T12:54:49.607Z,1.70
2018-09-13T12:57:16.950Z,1.30
2018-09-13T12:59:44.308Z,1.50
2018-09-13T13:02:11.710Z,1.60
2018-09-13T13:04:39.063Z,1.70
2018-09-13T13:07:06.440Z,1.77
2018-09-13T13:09:33.856Z,1.43
2018-09-13T13:12:01.223Z,1.67
2018-09-13T13:14:28.568Z,1.80
2018-09-13T13:16:56.044Z,1.60
2018-09-13T13:19:23.368Z,2.03
2018-09-13T13:21:50.702Z,1.70
2018-09-13T13:24:18.100Z,1.50
2018-09-13T13:26:45.499Z,1.97
2018-09-13T13:29:13.930Z,2.13
2018-09-13T13:31:41.324Z,1.60
2018-09-13T13:34:08.695Z,1.80
2018-09-13T13:36:36.049Z,2.30
2018-09-13T13:39:05.474Z,1.50
2018-09-13T13:41:32.843Z,2.57
2018-09-13T13:44:00.313Z,1.50
2018-09-13T13:46:27.758Z,1.37
2018-09-13T13:48:55.151Z,1.67
2018-09-13T13:51:22.517Z,1.40
2018-09-13T13:53:49.884Z,1.50
2018-09-13T13:56:17.259Z,1.90
2018-09-13T13:58:44.627Z,1.80
2018-09-13T14:01:11.972Z,1.80
2018-09-13T14:03:39.312Z,1.73
2018-09-13T14:06:06.695Z,1.70
2018-09-13T14:08:34.059Z,2.10
2018-09-13T14:11:01.415Z,1.83
2018-09-13T14:13:28.767Z,2.00
2018-09-13T14:15:56.137Z,1.77
2018-09-13T14:18:23.493Z,1.53
2018-09-13T14:20:50.908Z,1.83
2018-09-13T14:23:18.287Z,1.60
2018-09-13T14:25:45.691Z,1.30
2018-09-13T14:28:13.429Z,1.77
2018-09-13T14:30:40.817Z,2.30
2018-09-13T14:33:08.202Z,1.83
2018-09-13T14:35:35.623Z,1.90
2018-09-13T14:38:02.949Z,1.97
2018-09-13T14:40:30.381Z,1.80
2018-09-13T14:42:57.763Z,2.20
2018-09-13T14:45:25.779Z,2.07
2018-09-13T14:47:53.141Z,1.77
2018-09-13T14:50:20.507Z,2.33
2018-09-13T14:52:48.121Z,2.47
2018-09-13T14:55:15.492Z,2.20
2018-09-13T14:57:42.856Z,1.87
2018-09-13T15:00:10.245Z,1.80
2018-09-13T15:02:37.728Z,2.53
2018-09-13T15:05:05.395Z,1.93
2018-09-13T15:07:32.890Z,2.07
2018-09-13T15:10:00.266Z,2.60
2018-09-13T15:12:27.630Z,1.87
2018-09-13T15:14:55.037Z,1.70
2018-09-13T15:17:22.465Z,1.97
2018-09-13T15:19:49.853Z,2.00
2018-09-13T15:22:17.209Z,1.47
2018-09-13T15:24:44.579Z,1.60
2018-09-13T15:27:11.932Z,1.83
2018-09-13T15:29:39.417Z,1.60
2018-09-13T15:32:06.844Z,1.80
2018-09-13T15:34:34.199Z,1.70
2018-09-13T15:37:01.593Z,1.73
2018-09-13T15:39:28.936Z,1.60
2018-09-13T15:41:56.284Z,2.27
2018-09-13T15:44:23.682Z,1.77
2018-09-13T15:46:51.220Z,1.30
2018-09-13T15:49:18.623Z,1.80
2018-09-13T15:51:45.994Z,1.53
2018-09-13T15:54:13.327Z,1.80
2018-09-13T15:56:40.680Z,1.50
2018-09-13T15:59:08.080Z,2.30
2018-09-13T16:01:35.553Z,2.20
2018-09-13T16:04:02.879Z,2.10
2018-09-13T16:06:30.328Z,1.80
2018-09-13T16:08:57.672Z,1.90
2018-09-13T16:11:25.040Z,2.00
2018-09-13T16:13:52.444Z,1.73
2018-09-13T16:16:19.787Z,2.27
2018-09-13T16:18:47.141Z,1.67
2018-09-13T16:21:14.494Z,1.93
2018-09-13T16:23:41.896Z,2.03
2018-09-13T16:26:09.489Z,1.90
2018-09-13T16:28:36.820Z,1.77
2018-09-13T16:31:04.250Z,3.03
2018-09-13T16:33:31.827Z,2.00
2018-09-13T16:35:59.782Z,2.03
2018-09-13T16:38:32.792Z,1.80
2018-09-13T16:41:07.554Z,1.50
2018-09-13T16:43:40.841Z,2.80
2018-09-13T16:46:10.101Z,1.70
2018-09-13T16:48:42.405Z,2.17
2018-09-13T16:51:09.892Z,2.23
2018-09-13T16:53:37.316Z,1.80
2018-09-13T16:56:04.668Z,2.00
2018-09-13T16:58:32.099Z,2.03
2018-09-13T17:00:59.452Z,1.70
2018-09-13T17:03:26.797Z,1.73
2018-09-13T17:05:54.286Z,1.83
2018-09-13T17:08:21.966Z,1.90
2018-09-13T17:10:49.336Z,2.33
2018-09-13T17:13:16.705Z,2.03
2018-09-13T17:15:44.101Z,1.80
2018-09-13T17:18:11.531Z,2.63
2018-09-13T17:20:38.911Z,2.03
2018-09-13T17:23:06.402Z,1.87
2018-09-13T17:25:33.743Z,1.80
2018-09-13T17:28:01.148Z,1.90
2018-09-13T17:30:28.525Z,1.73
2018-09-13T17:32:55.888Z,1.60
2018-09-13T17:35:23.913Z,2.23
2018-09-13T17:37:51.294Z,1.97
2018-09-13T17:40:18.703Z,1.80
2018-09-13T17:42:46.068Z,2.20
2018-09-13T17:45:13.407Z,2.20
2018-09-13T17:47:40.788Z,2.43
2018-09-13T17:50:08.140Z,2.83
2018-09-13T17:52:35.583Z,2.20
2018-09-13T17:55:02.990Z,2.30
2018-09-13T17:57:30.479Z,2.00
2018-09-13T17:59:57.890Z,2.10
2018-09-13T18:02:25.275Z,2.03
2018-09-13T18:04:52.648Z,1.97
2018-09-13T18:07:20.002Z,3.00
2018-09-13T18:09:47.365Z,2.33
2018-09-13T18:12:14.732Z,2.47
2018-09-13T18:14:42.119Z,2.33
2018-09-13T18:17:09.467Z,2.50
2018-09-13T18:19:36.816Z,2.97
2018-09-13T18:22:04.176Z,2.37
2018-09-13T18:24:31.533Z,2.67
2018-09-13T18:26:59.005Z,2.80
2018-09-13T18:29:26.383Z,2.60
2018-09-13T18:31:53.796Z,2.70
2018-09-13T18:34:21.142Z,2.60
2018-09-13T18:36:48.711Z,2.40
2018-09-13T18:39:16.180Z,2.70
2018-09-13T18:41:43.806Z,2.77
2018-09-13T18:44:12.511Z,2.60
2018-09-13T18:46:39.974Z,2.90
2018-09-13T18:49:07.441Z,2.70
2018-09-13T18:51:34.958Z,3.03
2018-09-13T18:54:06.248Z,3.30
2018-09-13T18:56:35.150Z,3.23
2018-09-13T18:59:03.342Z,3.10
2018-09-13T19:01:31.849Z,2.83
2018-09-13T19:03:59.545Z,3.50
2018-09-13T19:06:27.367Z,3.00
2018-09-13T19:08:55.853Z,3.23
2018-09-13T19:11:23.511Z,2.80
2018-09-13T19:13:52.527Z,3.27
2018-09-13T19:16:20.188Z,2.90
2018-09-13T19:18:47.760Z,2.90
2018-09-13T19:21:15.610Z,2.93
2018-09-13T19:23:43.917Z,2.80
2018-09-13T19:26:11.538Z,4.20
2018-09-13T19:28:41.557Z,5.13
2018-09-13T19:31:09.512Z,2.87
2018-09-13T19:33:37.637Z,2.77
2018-09-13T19:36:07.655Z,3.10
2018-09-13T19:38:35.154Z,3.53
2018-09-13T19:41:04.125Z,3.03
2018-09-13T19:43:32.063Z,2.73
2018-09-13T19:45:59.724Z,3.50
2018-09-13T19:48:30.720Z,2.80
2018-09-13T19:51:05.037Z,3.83
2018-09-13T19:53:32.605Z,3.57
2018-09-13T19:56:01.800Z,3.33
2018-09-13T19:58:29.697Z,3.40
2018-09-13T20:00:57.229Z,3.27
2018-09-13T20:03:24.726Z,3.30
2018-09-13T20:05:52.407Z,3.47
2018-09-13T20:08:20.421Z,3.23
2018-09-13T20:10:48.167Z,3.60
2018-09-13T20:13:15.644Z,3.47
2018-09-13T20:15:43.051Z,3.77
2018-09-13T20:18:10.880Z,4.07
2018-09-13T20:20:38.670Z,3.60
2018-09-13T20:23:07.231Z,5.47
2018-09-13T20:25:37.034Z,3.80
2018-09-13T20:28:04.700Z,3.27
2018-09-13T20:30:32.271Z,3.47
2018-09-13T20:32:59.982Z,4.07
2018-09-13T20:35:27.560Z,3.43
2018-09-13T20:37:55.106Z,4.90
2018-09-13T20:40:22.964Z,3.73
2018-09-13T20:42:50.701Z,3.90
2018-09-13T20:45:18.316Z,4.53
2018-09-13T20:47:46.165Z,3.80
2018-09-13T20:50:14.058Z,4.63
2018-09-13T20:52:41.930Z,4.53
2018-09-13T20:55:09.787Z,5.13
2018-09-13T20:57:40.593Z,3.57
2018-09-13T21:00:08.317Z,4.13
2018-09-13T21:02:38.192Z,3.77
2018-09-13T21:05:06.828Z,5.87
2018-09-13T21:07:34.708Z,4.80
2018-09-13T21:10:02.433Z,6.13
2018-09-13T21:12:30.530Z,4.30
2018-09-13T21:14:58.520Z,4.10
2018-09-13T21:17:26.478Z,4.17
2018-09-13T21:19:54.543Z,4.97
2018-09-13T21:22:23.422Z,4.20
2018-09-13T21:24:51.194Z,6.10
2018-09-13T21:27:19.099Z,3.97
2018-09-13T21:29:47.064Z,4.47
2018-09-13T21:32:15.284Z,3.67
2018-09-13T21:34:43.191Z,4.93
2018-09-13T21:37:11.204Z,4.80
2018-09-13T21:39:38.841Z,4.47
2018-09-13T21:42:06.807Z,4.30
2018-09-13T21:44:34.667Z,4.63
2018-09-13T21:47:02.686Z,5.00
2018-09-13T21:49:30.282Z,4.50
2018-09-13T21:52:01.491Z,4.67
2018-09-13T21:54:29.133Z,4.33
2018-09-13T21:56:57.545Z,4.70
2018-09-13T21:59:25.717Z,4.67
2018-09-13T22:01:53.585Z,4.20
2018-09-13T22:04:21.669Z,4.50
2018-09-13T22:06:49.807Z,5.47
2018-09-13T22:12:22.918Z,4.00
2018-09-13T22:14:50.890Z,4.47
2018-09-13T22:17:18.771Z,4.43
2018-09-13T22:19:46.626Z,4.97
2018-09-13T22:22:15.952Z,4.63
2018-09-13T22:24:43.912Z,4.67
2018-09-13T22:27:12.015Z,5.13
2018-09-13T22:29:40.075Z,4.57
2018-09-13T22:32:08.064Z,4.53
2018-09-13T22:34:35.835Z,4.53
2018-09-13T22:37:04.638Z,4.33
2018-09-13T22:39:33.047Z,5.03
2018-09-13T22:42:00.865Z,5.20
2018-09-13T22:44:44.592Z,4.03
2018-09-13T22:47:13.031Z,5.13
2018-09-13T22:49:41.613Z,4.90
2018-09-13T22:52:10.379Z,4.67
2018-09-13T22:54:40.401Z,4.47
2018-09-13T22:57:08.668Z,4.73
2018-09-13T22:59:36.630Z,5.07
2018-09-13T23:02:05.141Z,4.07
2018-09-13T23:04:36.992Z,4.63
2018-09-13T23:07:06.604Z,4.60
2018-09-13T23:09:34.872Z,4.20
2018-09-13T23:12:02.871Z,5.00
2018-09-13T23:14:30.922Z,4.67
2018-09-13T23:16:58.983Z,4.50
2018-09-13T23:19:28.204Z,4.53
2018-09-13T23:21:57.043Z,4.03
2018-09-13T23:24:25.518Z,4.43
2018-09-13T23:26:53.752Z,4.67
2018-09-13T23:29:35.369Z,4.70
2018-09-13T23:32:04.776Z,6.37
2018-09-13T23:34:34.244Z,6.77
2018-09-13T23:37:02.670Z,4.90
2018-09-13T23:39:31.120Z,7.77
2018-09-13T23:41:59.824Z,6.60
2018-09-13T23:44:28.104Z,4.90
2018-09-13T23:46:56.202Z,4.93
2018-09-13T23:49:24.157Z,4.23
2018-09-13T23:51:52.381Z,6.63
2018-09-13T23:54:20.739Z,4.70
2018-09-13T23:56:51.781Z,5.27
2018-09-13T23:59:20.579Z,4.20
